sensor_id;sensor_type;location;lat;lon;timestamp;pressure;altitude;pressure_sealevel;temperature;humidity
77216;BME280;66210;53.282;9.864;2023-06-26T00:01:04;100886.31;;;19.82;74.10
77216;BME280;66210;53.282;9.864;2023-06-26T00:03:42;100879.41;;;19.79;74.30
77216;BME280;66210;53.282;9.864;2023-06-26T00:06:08;100881.06;;;19.72;74.35
77216;BME280;66210;53.282;9.864;2023-06-26T00:08:35;100880.09;;;19.66;74.69
77216;BME280;66210;53.282;9.864;2023-06-26T00:11:01;100875.75;;;19.62;74.55
77216;BME280;66210;53.282;9.864;2023-06-26T00:13:28;100880.03;;;19.58;74.70
77216;BME280;66210;53.282;9.864;2023-06-26T00:15:54;100876.56;;;19.53;74.92
77216;BME280;66210;53.282;9.864;2023-06-26T00:18:21;100868.75;;;19.50;74.87
77216;BME280;66210;53.282;9.864;2023-06-26T00:20:49;100873.03;;;19.46;75.06
77216;BME280;66210;53.282;9.864;2023-06-26T00:23:16;100871.25;;;19.42;75.30
77216;BME280;66210;53.282;9.864;2023-06-26T00:25:43;100867.78;;;19.39;75.13
77216;BME280;66210;53.282;9.864;2023-06-26T00:28:10;100865.16;;;19.34;75.37
77216;BME280;66210;53.282;9.864;2023-06-26T00:30:37;100866.00;;;19.33;75.13
77216;BME280;66210;53.282;9.864;2023-06-26T00:33:04;100858.22;;;19.30;75.07
77216;BME280;66210;53.282;9.864;2023-06-26T00:35:31;100853.03;;;19.27;75.43
77216;BME280;66210;53.282;9.864;2023-06-26T00:37:57;100855.56;;;19.22;75.49
77216;BME280;66210;53.282;9.864;2023-06-26T00:40:24;100858.13;;;19.22;75.38
77216;BME280;66210;53.282;9.864;2023-06-26T00:42:53;100853.81;;;19.20;75.81
77216;BME280;66210;53.282;9.864;2023-06-26T00:45:19;100857.22;;;19.19;75.59
77216;BME280;66210;53.282;9.864;2023-06-26T00:48:03;100851.19;;;19.15;75.88
77216;BME280;66210;53.282;9.864;2023-06-26T00:50:31;100847.75;;;19.16;75.74
77216;BME280;66210;53.282;9.864;2023-06-26T00:52:57;100846.03;;;19.15;75.43
77216;BME280;66210;53.282;9.864;2023-06-26T00:55:27;100835.69;;;19.10;75.67
77216;BME280;66210;53.282;9.864;2023-06-26T00:57:54;100838.19;;;19.07;75.81
77216;BME280;66210;53.282;9.864;2023-06-26T01:00:21;100839.06;;;19.06;75.86
77216;BME280;66210;53.282;9.864;2023-06-26T01:02:48;100837.25;;;18.99;76.07
77216;BME280;66210;53.282;9.864;2023-06-26T01:05:15;100835.47;;;18.95;76.28
77216;BME280;66210;53.282;9.864;2023-06-26T01:07:48;100832.78;;;18.87;76.50
77216;BME280;66210;53.282;9.864;2023-06-26T01:10:18;100832.75;;;18.84;76.30
77216;BME280;66210;53.282;9.864;2023-06-26T01:12:45;100831.84;;;18.82;76.49
77216;BME280;66210;53.282;9.864;2023-06-26T01:15:12;100830.97;;;18.80;76.57
77216;BME280;66210;53.282;9.864;2023-06-26T01:17:39;100830.06;;;18.77;76.39
77216;BME280;66210;53.282;9.864;2023-06-26T01:20:08;100827.47;;;18.77;76.47
77216;BME280;66210;53.282;9.864;2023-06-26T01:27:49;100811.94;;;18.72;76.80
77216;BME280;66210;53.282;9.864;2023-06-26T01:30:17;100805.06;;;18.71;76.71
77216;BME280;66210;53.282;9.864;2023-06-26T01:32:45;100795.59;;;18.68;76.54
77216;BME280;66210;53.282;9.864;2023-06-26T01:35:13;100792.97;;;18.64;76.57
77216;BME280;66210;53.282;9.864;2023-06-26T01:37:40;100799.78;;;18.60;76.99
77216;BME280;66210;53.282;9.864;2023-06-26T01:40:07;100797.16;;;18.57;76.84
77216;BME280;66210;53.282;9.864;2023-06-26T01:42:34;100792.84;;;18.55;77.08
77216;BME280;66210;53.282;9.864;2023-06-26T01:47:40;100797.94;;;18.50;77.33
77216;BME280;66210;53.282;9.864;2023-06-26T01:50:13;100791.00;;;18.46;77.18
77216;BME280;66210;53.282;9.864;2023-06-26T01:52:48;100799.56;;;18.46;77.51
77216;BME280;66210;53.282;9.864;2023-06-26T01:55:24;100791.81;;;18.45;77.44
77216;BME280;66210;53.282;9.864;2023-06-26T01:57:56;100784.09;;;18.45;77.43
77216;BME280;66210;53.282;9.864;2023-06-26T02:00:27;100780.66;;;18.43;77.06
77216;BME280;66210;53.282;9.864;2023-06-26T02:02:55;100777.19;;;18.39;77.36
77216;BME280;66210;53.282;9.864;2023-06-26T02:05:28;100774.53;;;18.35;77.50
77216;BME280;66210;53.282;9.864;2023-06-26T02:07:57;100777.06;;;18.32;77.73
77216;BME280;66210;53.282;9.864;2023-06-26T02:10:24;100772.72;;;18.27;78.00
77216;BME280;66210;53.282;9.864;2023-06-26T02:12:51;100770.13;;;18.26;78.08
77216;BME280;66210;53.282;9.864;2023-06-26T02:15:17;100766.69;;;18.25;77.79
77216;BME280;66210;53.282;9.864;2023-06-26T02:17:44;100760.63;;;18.22;77.99
77216;BME280;66210;53.282;9.864;2023-06-26T02:20:15;100758.09;;;18.25;77.98
77216;BME280;66210;53.282;9.864;2023-06-26T02:22:42;100765.81;;;18.25;77.98
77216;BME280;66210;53.282;9.864;2023-06-26T02:25:09;100764.94;;;18.24;78.03
77216;BME280;66210;53.282;9.864;2023-06-26T02:27:39;100762.38;;;18.23;77.59
77216;BME280;66210;53.282;9.864;2023-06-26T02:30:08;100762.34;;;18.21;77.88
77216;BME280;66210;53.282;9.864;2023-06-26T02:32:35;100754.59;;;18.20;77.88
77216;BME280;66210;53.282;9.864;2023-06-26T02:35:02;100746.88;;;18.20;77.89
77216;BME280;66210;53.282;9.864;2023-06-26T02:37:29;100748.63;;;18.22;77.69
77216;BME280;66210;53.282;9.864;2023-06-26T02:39:55;100753.78;;;18.21;77.76
77216;BME280;66210;53.282;9.864;2023-06-26T02:42:22;100750.31;;;18.19;77.76
77216;BME280;66210;53.282;9.864;2023-06-26T02:44:49;100749.38;;;18.15;77.92
77216;BME280;66210;53.282;9.864;2023-06-26T02:47:16;100756.25;;;18.15;78.12
77216;BME280;66210;53.282;9.864;2023-06-26T02:49:43;100751.88;;;18.11;78.47
77216;BME280;66210;53.282;9.864;2023-06-26T02:52:09;100747.53;;;18.05;78.68
77216;BME280;66210;53.282;9.864;2023-06-26T02:54:36;100749.19;;;18.01;78.49
77216;BME280;66210;53.282;9.864;2023-06-26T02:57:03;100743.09;;;17.98;78.68
77216;BME280;66210;53.282;9.864;2023-06-26T02:59:30;100734.50;;;17.96;78.59
77216;BME280;66210;53.282;9.864;2023-06-26T03:01:57;100735.34;;;17.95;78.76
77216;BME280;66210;53.282;9.864;2023-06-26T03:04:23;100730.22;;;17.95;78.72
77216;BME280;66210;53.282;9.864;2023-06-26T03:06:50;100732.78;;;17.95;78.48
77216;BME280;66210;53.282;9.864;2023-06-26T03:09:17;100728.50;;;17.95;78.73
77216;BME280;66210;53.282;9.864;2023-06-26T03:11:44;100719.97;;;17.96;78.63
77216;BME280;66210;53.282;9.864;2023-06-26T03:14:11;100731.09;;;17.97;78.28
77216;BME280;66210;53.282;9.864;2023-06-26T03:16:37;100724.28;;;17.99;78.36
77216;BME280;66210;53.282;9.864;2023-06-26T03:19:04;100714.81;;;17.96;78.67
77216;BME280;66210;53.282;9.864;2023-06-26T03:21:32;100719.97;;;17.98;78.40
77216;BME280;66210;53.282;9.864;2023-06-26T03:23:58;100725.16;;;17.99;78.45
77216;BME280;66210;53.282;9.864;2023-06-26T03:26:25;100721.69;;;17.97;78.23
77216;BME280;66210;53.282;9.864;2023-06-26T03:28:54;100719.97;;;17.96;78.51
77216;BME280;66210;53.282;9.864;2023-06-26T03:31:21;100725.97;;;17.97;78.44
77216;BME280;66210;53.282;9.864;2023-06-26T03:33:48;100731.09;;;17.97;78.53
77216;BME280;66210;53.282;9.864;2023-06-26T03:36:14;100715.63;;;17.92;78.56
77216;BME280;66210;53.282;9.864;2023-06-26T03:38:41;100719.91;;;17.92;78.81
77216;BME280;66210;53.282;9.864;2023-06-26T03:41:08;100720.72;;;17.91;78.58
77216;BME280;66210;53.282;9.864;2023-06-26T03:43:34;100711.25;;;17.88;78.66
77216;BME280;66210;53.282;9.864;2023-06-26T03:46:01;100714.72;;;17.90;78.77
77216;BME280;66210;53.282;9.864;2023-06-26T03:48:27;100707.84;;;17.88;79.10
77216;BME280;66210;53.282;9.864;2023-06-26T03:50:54;100706.19;;;17.93;78.91
77216;BME280;66210;53.282;9.864;2023-06-26T03:53:20;100690.72;;;17.91;79.03
77216;BME280;66210;53.282;9.864;2023-06-26T03:55:47;100702.78;;;17.94;78.80
77216;BME280;66210;53.282;9.864;2023-06-26T03:58:14;100699.38;;;17.95;79.13
77216;BME280;66210;53.282;9.864;2023-06-26T04:00:40;100695.13;;;17.97;79.30
77216;BME280;66210;53.282;9.864;2023-06-26T04:03:07;100689.94;;;17.95;78.98
77216;BME280;66210;53.282;9.864;2023-06-26T04:05:34;100691.69;;;17.98;79.09
77216;BME280;66210;53.282;9.864;2023-06-26T04:08:02;100694.28;;;17.99;78.83
77216;BME280;66210;53.282;9.864;2023-06-26T04:10:30;100692.59;;;18.01;78.82
77216;BME280;66210;53.282;9.864;2023-06-26T04:12:56;100687.47;;;18.01;79.01
77216;BME280;66210;53.282;9.864;2023-06-26T04:15:23;100678.91;;;18.01;78.69
77216;BME280;66210;53.282;9.864;2023-06-26T04:17:50;100685.81;;;18.05;78.73
77216;BME280;66210;53.282;9.864;2023-06-26T04:20:16;100684.97;;;18.06;78.79
77216;BME280;66210;53.282;9.864;2023-06-26T04:22:43;100691.81;;;18.07;79.00
77216;BME280;66210;53.282;9.864;2023-06-26T04:25:09;100671.25;;;18.07;78.78
77216;BME280;66210;53.282;9.864;2023-06-26T04:27:38;100673.84;;;18.08;78.61
77216;BME280;66210;53.282;9.864;2023-06-26T04:30:07;100669.63;;;18.12;78.73
77216;BME280;66210;53.282;9.864;2023-06-26T04:32:35;100673.94;;;18.15;78.63
77216;BME280;66210;53.282;9.864;2023-06-26T04:35:01;100673.09;;;18.14;78.77
77216;BME280;66210;53.282;9.864;2023-06-26T04:37:29;100667.94;;;18.16;78.89
77216;BME280;66210;53.282;9.864;2023-06-26T04:39:56;100665.34;;;18.13;78.99
77216;BME280;66210;53.282;9.864;2023-06-26T04:42:23;100661.09;;;18.15;79.16
77216;BME280;66210;53.282;9.864;2023-06-26T04:44:49;100667.13;;;18.17;79.11
77216;BME280;66210;53.282;9.864;2023-06-26T04:47:16;100660.28;;;18.19;78.96
77216;BME280;66210;53.282;9.864;2023-06-26T04:49:43;100661.19;;;18.22;79.06
77216;BME280;66210;53.282;9.864;2023-06-26T04:52:13;100660.34;;;18.25;78.79
77216;BME280;66210;53.282;9.864;2023-06-26T04:54:40;100663.00;;;18.28;79.34
77216;BME280;66210;53.282;9.864;2023-06-26T04:57:06;100651.88;;;18.31;79.04
77216;BME280;66210;53.282;9.864;2023-06-26T04:59:35;100649.31;;;18.34;79.00
77216;BME280;66210;53.282;9.864;2023-06-26T05:02:01;100652.84;;;18.40;79.32
77216;BME280;66210;53.282;9.864;2023-06-26T05:04:28;100646.03;;;18.44;79.20
77216;BME280;66210;53.282;9.864;2023-06-26T05:06:55;100635.78;;;18.48;79.31
77216;BME280;66210;53.282;9.864;2023-06-26T05:09:21;100642.75;;;18.56;79.36
77216;BME280;66210;53.282;9.864;2023-06-26T05:11:48;100632.53;;;18.62;79.55
77216;BME280;66210;53.282;9.864;2023-06-26T05:14:15;100636.94;;;18.74;79.45
77216;BME280;66210;53.282;9.864;2023-06-26T05:16:42;100625.13;;;18.88;79.36
77216;BME280;66210;53.282;9.864;2023-06-26T05:19:09;100625.25;;;19.03;79.09
77216;BME280;66210;53.282;9.864;2023-06-26T05:21:36;100615.97;;;19.21;78.56
77216;BME280;66210;53.282;9.864;2023-06-26T05:24:03;100614.38;;;19.37;78.07
77216;BME280;66210;53.282;9.864;2023-06-26T05:26:31;100623.06;;;19.49;77.97
77216;BME280;66210;53.282;9.864;2023-06-26T05:28:58;100618.84;;;19.59;77.95
77216;BME280;66210;53.282;9.864;2023-06-26T05:31:25;100616.31;;;19.68;77.53
77216;BME280;66210;53.282;9.864;2023-06-26T05:33:54;100613.84;;;19.75;77.47
77216;BME280;66210;53.282;9.864;2023-06-26T05:36:23;100613.03;;;19.80;77.42
77216;BME280;66210;53.282;9.864;2023-06-26T05:38:50;100606.19;;;19.87;77.62
77216;BME280;66210;53.282;9.864;2023-06-26T05:41:18;100599.31;;;19.90;77.25
77216;BME280;66210;53.282;9.864;2023-06-26T05:43:45;100595.91;;;19.98;77.33
77216;BME280;66210;53.282;9.864;2023-06-26T05:46:11;100595.09;;;20.03;77.39
77216;BME280;66210;53.282;9.864;2023-06-26T05:48:38;100602.84;;;20.11;77.25
77216;BME280;66210;53.282;9.864;2023-06-26T05:51:06;100596.00;;;20.19;76.98
77216;BME280;66210;53.282;9.864;2023-06-26T05:53:33;100596.06;;;20.28;77.11
77216;BME280;66210;53.282;9.864;2023-06-26T05:56:01;100590.06;;;20.37;77.06
77216;BME280;66210;53.282;9.864;2023-06-26T05:58:29;100596.97;;;20.46;76.92
77216;BME280;66210;53.282;9.864;2023-06-26T06:00:56;100587.53;;;20.55;76.80
77216;BME280;66210;53.282;9.864;2023-06-26T06:03:23;100580.72;;;20.68;76.04
77216;BME280;66210;53.282;9.864;2023-06-26T06:05:50;100577.31;;;20.83;75.65
77216;BME280;66210;53.282;9.864;2023-06-26T06:08:16;100573.88;;;21.00;75.45
77216;BME280;66210;53.282;9.864;2023-06-26T06:10:43;100574.72;;;21.20;74.55
77216;BME280;66210;53.282;9.864;2023-06-26T06:13:10;100566.97;;;21.43;72.25
77216;BME280;66210;53.282;9.864;2023-06-26T06:15:36;100571.25;;;21.67;71.76
77216;BME280;66210;53.282;9.864;2023-06-26T06:18:03;100567.75;;;21.90;70.95
77216;BME280;66210;53.282;9.864;2023-06-26T06:20:30;100568.56;;;22.03;71.38
77216;BME280;66210;53.282;9.864;2023-06-26T06:22:56;100571.97;;;22.12;69.35
77216;BME280;66210;53.282;9.864;2023-06-26T06:25:23;100564.16;;;22.26;69.33
77216;BME280;66210;53.282;9.864;2023-06-26T06:27:50;100573.63;;;22.36;69.78
77216;BME280;66210;53.282;9.864;2023-06-26T06:30:16;100566.72;;;22.38;69.85
77216;BME280;66210;53.282;9.864;2023-06-26T06:32:51;100561.47;;;22.48;69.39
77216;BME280;66210;53.282;9.864;2023-06-26T06:35:19;100560.56;;;22.58;69.17
77216;BME280;66210;53.282;9.864;2023-06-26T06:37:50;100553.59;;;22.66;68.34
77216;BME280;66210;53.282;9.864;2023-06-26T06:40:17;100550.91;;;22.83;66.51
77216;BME280;66210;53.282;9.864;2023-06-26T06:42:43;100551.63;;;23.02;65.99
77216;BME280;66210;53.282;9.864;2023-06-26T06:45:10;100550.66;;;23.14;65.74
77216;BME280;66210;53.282;9.864;2023-06-26T06:47:37;100542.84;;;23.20;65.71
77216;BME280;66210;53.282;9.864;2023-06-26T06:50:03;100533.25;;;23.28;66.01
77216;BME280;66210;53.282;9.864;2023-06-26T06:52:38;100549.53;;;23.42;65.00
77216;BME280;66210;53.282;9.864;2023-06-26T06:55:07;100533.75;;;23.64;63.86
77216;BME280;66210;53.282;9.864;2023-06-26T06:57:36;100542.19;;;23.86;62.99
77216;BME280;66210;53.282;9.864;2023-06-26T07:00:09;100538.50;;;24.02;62.35
77216;BME280;66210;53.282;9.864;2023-06-26T07:02:44;100533.19;;;24.13;62.18
77216;BME280;66210;53.282;9.864;2023-06-26T07:05:12;100520.16;;;24.15;62.54
77216;BME280;66210;53.282;9.864;2023-06-26T07:07:39;100530.59;;;24.13;62.46
77216;BME280;66210;53.282;9.864;2023-06-26T07:10:08;100541.75;;;24.20;60.91
77216;BME280;66210;53.282;9.864;2023-06-26T07:12:36;100549.50;;;24.23;61.41
77216;BME280;66210;53.282;9.864;2023-06-26T07:15:04;100556.44;;;24.22;62.13
77216;BME280;66210;53.282;9.864;2023-06-26T07:17:32;100549.53;;;24.20;62.05
77216;BME280;66210;53.282;9.864;2023-06-26T07:20:02;100546.03;;;24.22;62.05
77216;BME280;66210;53.282;9.864;2023-06-26T07:22:36;100556.41;;;24.24;62.32
77216;BME280;66210;53.282;9.864;2023-06-26T07:25:03;100530.47;;;24.22;62.41
77216;BME280;66210;53.282;9.864;2023-06-26T07:27:31;100534.75;;;24.25;61.40
77216;BME280;66210;53.282;9.864;2023-06-26T07:29:59;100533.78;;;24.32;61.00
77216;BME280;66210;53.282;9.864;2023-06-26T07:32:26;100537.16;;;24.39;61.62
77216;BME280;66210;53.282;9.864;2023-06-26T07:34:53;100531.00;;;24.49;61.42
77216;BME280;66210;53.282;9.864;2023-06-26T07:37:19;100529.09;;;24.60;61.22
77216;BME280;66210;53.282;9.864;2023-06-26T07:39:47;100525.38;;;24.75;61.33
77216;BME280;66210;53.282;9.864;2023-06-26T07:42:14;100521.81;;;24.82;60.13
77216;BME280;66210;53.282;9.864;2023-06-26T07:44:44;100516.41;;;24.95;60.43
77216;BME280;66210;53.282;9.864;2023-06-26T07:47:10;100524.88;;;25.06;59.17
77216;BME280;66210;53.282;9.864;2023-06-26T07:49:38;100522.94;;;25.17;58.39
77216;BME280;66210;53.282;9.864;2023-06-26T07:52:05;100526.28;;;25.27;58.93
77216;BME280;66210;53.282;9.864;2023-06-26T07:54:32;100516.56;;;25.38;58.11
77216;BME280;66210;53.282;9.864;2023-06-26T07:57:01;100521.56;;;25.47;58.27
77216;BME280;66210;53.282;9.864;2023-06-26T07:59:29;100514.47;;;25.56;57.77
77216;BME280;66210;53.282;9.864;2023-06-26T08:01:57;100513.31;;;25.70;57.83
77216;BME280;66210;53.282;9.864;2023-06-26T08:04:25;100515.69;;;25.81;58.14
77216;BME280;66210;53.282;9.864;2023-06-26T08:06:53;100519.00;;;25.89;57.35
77216;BME280;66210;53.282;9.864;2023-06-26T08:09:22;100512.59;;;26.06;57.56
77216;BME280;66210;53.282;9.864;2023-06-26T08:11:50;100507.97;;;26.19;56.26
77216;BME280;66210;53.282;9.864;2023-06-26T08:14:17;100512.13;;;26.27;56.15
77216;BME280;66210;53.282;9.864;2023-06-26T08:16:46;100503.72;;;26.53;55.28
77216;BME280;66210;53.282;9.864;2023-06-26T08:19:13;100496.84;;;26.87;52.98
77216;BME280;66210;53.282;9.864;2023-06-26T08:21:44;100503.00;;;27.17;54.49
77216;BME280;66210;53.282;9.864;2023-06-26T08:24:14;100505.75;;;27.47;53.88
77216;BME280;66210;53.282;9.864;2023-06-26T08:26:46;100497.22;;;27.71;53.36
77216;BME280;66210;53.282;9.864;2023-06-26T08:29:13;100494.66;;;27.99;50.96
77216;BME280;66210;53.282;9.864;2023-06-26T08:31:42;100498.13;;;28.28;51.61
77216;BME280;66210;53.282;9.864;2023-06-26T08:34:09;100502.06;;;28.42;50.66
77216;BME280;66210;53.282;9.864;2023-06-26T08:36:36;100500.56;;;28.34;51.47
77216;BME280;66210;53.282;9.864;2023-06-26T08:39:03;100518.22;;;28.26;52.28
77216;BME280;66210;53.282;9.864;2023-06-26T08:41:31;100530.44;;;28.26;51.92
77216;BME280;66210;53.282;9.864;2023-06-26T08:43:58;100545.53;;;28.16;51.81
77216;BME280;66210;53.282;9.864;2023-06-26T08:46:25;100542.06;;;28.15;52.24
77216;BME280;66210;53.282;9.864;2023-06-26T08:48:56;100543.41;;;28.29;52.07
77216;BME280;66210;53.282;9.864;2023-06-26T08:51:28;100546.31;;;28.76;52.00
77216;BME280;66210;53.282;9.864;2023-06-26T08:54:01;100545.31;;;29.07;50.34
77216;BME280;66210;53.282;9.864;2023-06-26T08:56:40;100552.44;;;29.28;48.33
77216;BME280;66210;53.282;9.864;2023-06-26T08:59:08;100545.13;;;29.38;49.46
77216;BME280;66210;53.282;9.864;2023-06-26T09:01:37;100545.47;;;29.52;49.53
77216;BME280;66210;53.282;9.864;2023-06-26T09:04:05;100560.97;;;29.58;48.42
77216;BME280;66210;53.282;9.864;2023-06-26T09:06:36;100556.06;;;29.74;49.19
77216;BME280;66210;53.282;9.864;2023-06-26T09:09:25;100560.63;;;29.93;48.41
77216;BME280;66210;53.282;9.864;2023-06-26T09:11:52;100569.72;;;30.06;47.57
77216;BME280;66210;53.282;9.864;2023-06-26T09:14:19;100573.81;;;30.13;48.43
77216;BME280;66210;53.282;9.864;2023-06-26T09:16:46;100574.56;;;30.17;47.40
77216;BME280;66210;53.282;9.864;2023-06-26T09:19:13;100585.28;;;30.11;47.29
77216;BME280;66210;53.282;9.864;2023-06-26T09:21:41;100581.41;;;29.74;47.67
77216;BME280;66210;53.282;9.864;2023-06-26T09:24:09;100579.81;;;29.45;48.90
77216;BME280;66210;53.282;9.864;2023-06-26T09:26:40;100588.03;;;29.06;49.12
77216;BME280;66210;53.282;9.864;2023-06-26T09:29:08;100595.09;;;28.77;49.41
77216;BME280;66210;53.282;9.864;2023-06-26T09:31:37;100595.66;;;28.58;50.14
77216;BME280;66210;53.282;9.864;2023-06-26T09:34:09;100594.53;;;28.37;50.39
77216;BME280;66210;53.282;9.864;2023-06-26T09:36:36;100605.81;;;28.10;51.11
77216;BME280;66210;53.282;9.864;2023-06-26T09:39:08;100610.03;;;27.83;51.45
77216;BME280;66210;53.282;9.864;2023-06-26T09:41:40;100612.66;;;27.48;52.20
77216;BME280;66210;53.282;9.864;2023-06-26T09:44:10;100630.81;;;27.17;52.87
77216;BME280;66210;53.282;9.864;2023-06-26T09:46:38;100632.41;;;26.88;53.59
77216;BME280;66210;53.282;9.864;2023-06-26T09:49:10;100635.47;;;26.67;53.88
77216;BME280;66210;53.282;9.864;2023-06-26T09:51:39;100638.50;;;26.47;54.21
77216;BME280;66210;53.282;9.864;2023-06-26T09:54:07;100638.06;;;26.26;55.03
77216;BME280;66210;53.282;9.864;2023-06-26T09:56:36;100647.91;;;26.10;55.61
77216;BME280;66210;53.282;9.864;2023-06-26T09:59:04;100645.72;;;25.89;56.14
77216;BME280;66210;53.282;9.864;2023-06-26T10:01:32;100665.91;;;25.75;56.42
77216;BME280;66210;53.282;9.864;2023-06-26T10:03:59;100684.66;;;25.42;56.94
77216;BME280;66210;53.282;9.864;2023-06-26T10:06:33;100728.50;;;25.09;58.95
77216;BME280;66210;53.282;9.864;2023-06-26T10:09:03;100730.88;;;24.60;61.39
77216;BME280;66210;53.282;9.864;2023-06-26T10:11:44;100727.13;;;24.02;64.44
77216;BME280;66210;53.282;9.864;2023-06-26T10:14:13;100737.91;;;23.50;66.67
77216;BME280;66210;53.282;9.864;2023-06-26T10:16:44;100726.94;;;23.09;68.22
77216;BME280;66210;53.282;9.864;2023-06-26T10:19:13;100733.16;;;22.70;69.95
77216;BME280;66210;53.282;9.864;2023-06-26T10:21:41;100722.91;;;22.39;70.91
77216;BME280;66210;53.282;9.864;2023-06-26T10:24:10;100727.25;;;22.11;72.03
77216;BME280;66210;53.282;9.864;2023-06-26T10:26:42;100732.47;;;21.82;72.82
77216;BME280;66210;53.282;9.864;2023-06-26T10:29:11;100741.91;;;21.66;73.62
77216;BME280;66210;53.282;9.864;2023-06-26T10:31:43;100740.19;;;21.52;74.21
77216;BME280;66210;53.282;9.864;2023-06-26T10:34:12;100746.22;;;21.44;74.65
77216;BME280;66210;53.282;9.864;2023-06-26T10:36:40;100748.75;;;21.33;75.05
77216;BME280;66210;53.282;9.864;2023-06-26T10:39:07;100744.44;;;21.27;75.56
77216;BME280;66210;53.282;9.864;2023-06-26T10:41:38;100752.16;;;21.18;76.02
77216;BME280;66210;53.282;9.864;2023-06-26T10:44:16;100756.50;;;21.19;76.27
77216;BME280;66210;53.282;9.864;2023-06-26T10:46:50;100768.53;;;21.20;76.51
77216;BME280;66210;53.282;9.864;2023-06-26T10:49:28;100766.81;;;21.22;76.60
77216;BME280;66210;53.282;9.864;2023-06-26T10:51:55;100766.84;;;21.27;76.45
77216;BME280;66210;53.282;9.864;2023-06-26T10:54:31;100761.69;;;21.36;77.02
77216;BME280;66210;53.282;9.864;2023-06-26T10:56:59;100756.56;;;21.54;77.05
77216;BME280;66210;53.282;9.864;2023-06-26T10:59:28;100753.13;;;21.78;76.74
77216;BME280;66210;53.282;9.864;2023-06-26T11:02:03;100760.88;;;21.97;76.81
77216;BME280;66210;53.282;9.864;2023-06-26T11:04:44;100764.34;;;22.07;77.84
77216;BME280;66210;53.282;9.864;2023-06-26T11:07:19;100773.84;;;22.09;77.40
77216;BME280;66210;53.282;9.864;2023-06-26T11:12:44;100791.09;;;22.09;79.02
77216;BME280;66210;53.282;9.864;2023-06-26T11:15:12;100795.38;;;22.04;77.81
77216;BME280;66210;53.282;9.864;2023-06-26T11:17:47;100798.00;;;21.97;77.97
77216;BME280;66210;53.282;9.864;2023-06-26T11:20:15;100802.31;;;21.91;77.72
77216;BME280;66210;53.282;9.864;2023-06-26T11:22:43;100810.03;;;21.83;77.88
77216;BME280;66210;53.282;9.864;2023-06-26T11:25:12;100805.72;;;21.71;78.75
77216;BME280;66210;53.282;9.864;2023-06-26T11:27:40;100810.88;;;21.51;78.55
77216;BME280;66210;53.282;9.864;2023-06-26T11:30:21;100800.47;;;21.37;78.86
77216;BME280;66210;53.282;9.864;2023-06-26T11:32:49;100813.34;;;21.25;79.09
77216;BME280;66210;53.282;9.864;2023-06-26T11:35:23;100815.91;;;21.14;79.22
77216;BME280;66210;53.282;9.864;2023-06-26T11:37:58;100821.88;;;21.04;79.11
77216;BME280;66210;53.282;9.864;2023-06-26T11:40:35;100826.16;;;20.97;79.34
77216;BME280;66210;53.282;9.864;2023-06-26T11:43:03;100832.16;;;20.93;79.36
77216;BME280;66210;53.282;9.864;2023-06-26T11:45:31;100845.03;;;20.87;79.10
77216;BME280;66210;53.282;9.864;2023-06-26T11:47:59;100836.41;;;20.84;79.39
77216;BME280;66210;53.282;9.864;2023-06-26T11:50:27;100846.03;;;21.08;79.08
77216;BME280;66210;53.282;9.864;2023-06-26T11:52:58;100840.06;;;21.32;78.85
77216;BME280;66210;53.282;9.864;2023-06-26T11:55:26;100838.38;;;21.35;78.25
77216;BME280;66210;53.282;9.864;2023-06-26T11:57:54;100830.59;;;21.34;77.17
77216;BME280;66210;53.282;9.864;2023-06-26T12:00:22;100843.44;;;21.14;76.67
77216;BME280;66210;53.282;9.864;2023-06-26T12:02:49;100846.81;;;20.93;77.32
77216;BME280;66210;53.282;9.864;2023-06-26T12:05:21;100852.72;;;20.78;77.32
77216;BME280;66210;53.282;9.864;2023-06-26T12:07:49;100845.75;;;20.65;77.38
77216;BME280;66210;53.282;9.864;2023-06-26T12:10:17;100850.88;;;20.57;77.74
77216;BME280;66210;53.282;9.864;2023-06-26T12:12:45;100851.78;;;20.64;77.64
77216;BME280;66210;53.282;9.864;2023-06-26T12:15:14;100851.94;;;20.88;76.97
77216;BME280;66210;53.282;9.864;2023-06-26T12:17:41;100848.69;;;21.26;75.86
77216;BME280;66210;53.282;9.864;2023-06-26T12:20:20;100839.34;;;21.67;74.24
77216;BME280;66210;53.282;9.864;2023-06-26T12:22:48;100844.56;;;22.13;72.62
77216;BME280;66210;53.282;9.864;2023-06-26T12:25:20;100845.44;;;22.42;71.07
77216;BME280;66210;53.282;9.864;2023-06-26T12:27:47;100843.69;;;22.57;70.24
77216;BME280;66210;53.282;9.864;2023-06-26T12:30:14;100846.28;;;22.68;70.34
77216;BME280;66210;53.282;9.864;2023-06-26T12:32:47;100841.06;;;22.81;69.52
77216;BME280;66210;53.282;9.864;2023-06-26T12:35:14;100842.72;;;23.12;67.94
77216;BME280;66210;53.282;9.864;2023-06-26T12:37:43;100848.63;;;23.41;66.95
77216;BME280;66210;53.282;9.864;2023-06-26T12:40:17;100850.16;;;23.78;66.10
77216;BME280;66210;53.282;9.864;2023-06-26T12:42:45;100849.28;;;23.80;63.92
77216;BME280;66210;53.282;9.864;2023-06-26T12:45:14;100859.75;;;23.63;64.16
77216;BME280;66210;53.282;9.864;2023-06-26T12:48:13;100854.66;;;23.47;63.64
77216;BME280;66210;53.282;9.864;2023-06-26T12:50:44;100850.28;;;23.55;63.10
77216;BME280;66210;53.282;9.864;2023-06-26T12:53:11;100852.78;;;23.69;63.21
77216;BME280;66210;53.282;9.864;2023-06-26T12:55:40;100863.09;;;23.84;62.37
77216;BME280;66210;53.282;9.864;2023-06-26T12:58:06;100865.78;;;23.75;62.92
77216;BME280;66210;53.282;9.864;2023-06-26T13:00:35;100851.97;;;23.60;62.59
77216;BME280;66210;53.282;9.864;2023-06-26T13:03:03;100857.22;;;23.45;62.07
77216;BME280;66210;53.282;9.864;2023-06-26T13:05:33;100861.63;;;23.34;61.51
77216;BME280;66210;53.282;9.864;2023-06-26T13:07:59;100863.38;;;23.30;61.71